createdAt,value
2022-10-28T00:00:13.355Z,15.50
2022-10-28T00:02:57.012Z,15.50
2022-10-28T00:05:30.042Z,15.40
2022-10-28T00:07:58.665Z,15.40
2022-10-28T00:10:29.607Z,15.40
2022-10-28T00:13:00.620Z,15.40
2022-10-28T00:15:38.942Z,15.30
2022-10-28T00:18:15.631Z,15.30
2022-10-28T00:20:43.681Z,15.30
2022-10-28T00:23:19.476Z,15.20
2022-10-28T00:25:51.829Z,15.20
2022-10-28T00:28:30.234Z,15.20
2022-10-28T00:31:06.326Z,15.20
2022-10-28T00:33:37.347Z,15.20
2022-10-28T00:36:19.214Z,15.10
2022-10-28T00:38:55.523Z,15.10
2022-10-28T00:41:32.301Z,15.00
2022-10-28T00:44:50.808Z,15.10
2022-10-28T00:47:53.181Z,15.10
2022-10-28T00:50:42.054Z,15.10
2022-10-28T00:53:23.004Z,15.10
2022-10-28T00:56:02.805Z,15.00
2022-10-28T00:58:35.651Z,15.10
2022-10-28T01:01:09.414Z,15.10
2022-10-28T01:03:42.326Z,15.10
2022-10-28T01:06:12.193Z,15.10
2022-10-28T01:08:43.537Z,15.00
2022-10-28T01:11:26.510Z,15.00
2022-10-28T01:14:29.306Z,15.00
2022-10-28T01:17:09.664Z,15.10
2022-10-28T01:19:43.777Z,15.10
2022-10-28T01:22:37.591Z,15.10
2022-10-28T01:25:39.564Z,15.20
2022-10-28T01:28:39.935Z,15.20
2022-10-28T01:31:52.329Z,15.20
2022-10-28T01:34:38.906Z,15.30
2022-10-28T01:37:20.393Z,15.20
2022-10-28T01:39:59.777Z,15.20
2022-10-28T01:42:43.766Z,15.20
2022-10-28T01:45:32.218Z,15.20
2022-10-28T01:51:36.151Z,15.10
2022-10-28T01:54:12.088Z,15.10
2022-10-28T01:56:50.782Z,15.10
2022-10-28T01:59:24.893Z,15.10
2022-10-28T02:01:59.822Z,15.00
2022-10-28T02:04:35.377Z,15.00
2022-10-28T02:07:19.314Z,15.00
2022-10-28T02:10:28.997Z,15.00
2022-10-28T02:13:00.108Z,14.90
2022-10-28T02:16:22.702Z,14.90
2022-10-28T02:23:12.288Z,14.90
2022-10-28T02:25:53.801Z,14.90
2022-10-28T02:28:58.514Z,14.90
2022-10-28T02:31:54.442Z,14.90
2022-10-28T02:34:54.050Z,14.90
2022-10-28T02:37:32.722Z,14.90
2022-10-28T02:40:05.336Z,14.90
2022-10-28T02:42:51.082Z,14.90
2022-10-28T02:49:46.476Z,14.90
2022-10-28T02:52:18.647Z,14.90
2022-10-28T02:55:09.858Z,14.90
2022-10-28T02:57:52.173Z,14.90
2022-10-28T03:00:29.601Z,14.80
2022-10-28T03:03:00.593Z,14.80
2022-10-28T03:05:29.689Z,14.80
2022-10-28T03:08:02.282Z,14.70
2022-10-28T03:10:34.174Z,14.70
2022-10-28T03:13:06.676Z,14.70
2022-10-28T03:15:35.799Z,14.60
2022-10-28T03:18:07.018Z,14.70
2022-10-28T03:20:37.302Z,14.70
2022-10-28T03:23:08.353Z,14.70
2022-10-28T03:25:37.794Z,14.70
2022-10-28T03:28:08.130Z,14.70
2022-10-28T03:30:43.634Z,14.80
2022-10-28T03:33:13.894Z,14.80
2022-10-28T03:35:57.536Z,14.80
2022-10-28T03:38:33.278Z,14.80
2022-10-28T03:41:09.949Z,14.80
2022-10-28T03:43:42.788Z,14.90
2022-10-28T03:46:22.228Z,14.90
2022-10-28T03:48:55.010Z,14.80
2022-10-28T03:51:23.491Z,14.80
2022-10-28T03:53:52.848Z,14.80
2022-10-28T03:56:28.396Z,14.80
2022-10-28T03:59:03.168Z,14.90
2022-10-28T04:01:31.453Z,14.90
2022-10-28T04:04:17.545Z,14.80
2022-10-28T04:06:52.531Z,14.90
2022-10-28T04:09:32.533Z,14.90
2022-10-28T04:12:03.322Z,14.90
2022-10-28T04:14:31.498Z,14.90
2022-10-28T04:17:12.775Z,15.00
2022-10-28T04:19:41.775Z,15.00
2022-10-28T04:22:23.911Z,15.00
2022-10-28T04:27:39.773Z,15.00
2022-10-28T04:30:16.489Z,15.10
2022-10-28T04:32:54.278Z,15.10
2022-10-28T04:35:27.952Z,15.10
2022-10-28T04:37:59.204Z,15.10
2022-10-28T04:40:32.129Z,15.10
2022-10-28T04:43:09.815Z,15.10
2022-10-28T04:45:46.038Z,15.10
2022-10-28T04:48:27.532Z,15.00
2022-10-28T04:50:59.640Z,15.00
2022-10-28T04:53:30.541Z,15.00
2022-10-28T04:56:00.559Z,15.00
2022-10-28T04:58:37.644Z,15.00
2022-10-28T05:01:26.489Z,15.00
2022-10-28T05:03:56.727Z,15.00
2022-10-28T05:06:40.189Z,15.00
2022-10-28T05:09:17.745Z,14.90
2022-10-28T05:11:54.810Z,15.00
2022-10-28T05:14:25.856Z,15.00
2022-10-28T05:17:03.681Z,15.00
2022-10-28T05:19:35.073Z,15.00
2022-10-28T05:22:05.747Z,15.00
2022-10-28T05:24:43.928Z,15.00
2022-10-28T05:27:16.725Z,15.00
2022-10-28T05:29:54.258Z,15.00
2022-10-28T05:32:21.289Z,15.10
2022-10-28T05:34:48.344Z,15.10
2022-10-28T05:37:15.369Z,15.10
2022-10-28T05:39:42.392Z,15.20
2022-10-28T05:42:09.425Z,15.20
2022-10-28T05:44:36.444Z,15.20
2022-10-28T05:47:03.414Z,15.20
2022-10-28T05:49:30.377Z,15.20
2022-10-28T05:51:57.342Z,15.20
2022-10-28T05:54:24.429Z,15.20
2022-10-28T05:56:51.406Z,15.20
2022-10-28T05:59:18.372Z,15.20
2022-10-28T06:01:45.354Z,15.30
2022-10-28T06:04:12.487Z,15.30
2022-10-28T06:06:39.854Z,15.30
2022-10-28T06:09:11.875Z,15.30
2022-10-28T06:11:43.363Z,15.40
2022-10-28T06:14:16.847Z,15.40
2022-10-28T06:26:35.608Z,15.30
2022-10-28T06:43:17.238Z,15.30
2022-10-28T06:49:43.781Z,15.40
2022-10-28T06:52:10.782Z,15.40
2022-10-28T06:55:05.350Z,15.50
2022-10-28T06:58:06.421Z,15.50
2022-10-28T07:00:33.829Z,15.60
2022-10-28T07:03:01.930Z,15.60
2022-10-28T07:05:29.579Z,15.70
2022-10-28T07:07:56.900Z,15.80
2022-10-28T07:10:24.126Z,15.90
2022-10-28T07:12:53.288Z,16.00
2022-10-28T07:15:21.534Z,16.00
2022-10-28T07:17:56.748Z,16.10
2022-10-28T07:20:25.264Z,16.20
2022-10-28T07:23:02.728Z,16.20
2022-10-28T07:25:31.016Z,16.30
2022-10-28T07:27:59.000Z,16.40
2022-10-28T07:30:26.881Z,16.40
2022-10-28T07:32:54.375Z,16.50
2022-10-28T07:35:21.830Z,16.50
2022-10-28T07:37:49.009Z,16.60
2022-10-28T07:40:16.316Z,16.60
2022-10-28T07:42:43.243Z,16.60
2022-10-28T07:45:10.381Z,16.70
2022-10-28T07:47:37.524Z,16.80
2022-10-28T07:50:06.247Z,16.80
2022-10-28T07:52:34.363Z,16.90
2022-10-28T07:55:01.805Z,16.90
2022-10-28T07:57:28.807Z,17.00
2022-10-28T07:59:55.758Z,17.10
2022-10-28T08:02:25.080Z,17.20
2022-10-28T08:04:52.513Z,17.30
2022-10-28T08:07:20.398Z,17.30
2022-10-28T08:09:47.404Z,17.40
2022-10-28T08:12:15.454Z,17.50
2022-10-28T08:14:42.810Z,17.50
2022-10-28T08:17:10.236Z,17.60
2022-10-28T08:19:37.401Z,17.70
2022-10-28T08:22:04.736Z,17.80
2022-10-28T08:24:31.800Z,17.90
2022-10-28T08:26:59.014Z,17.90
2022-10-28T08:29:29.855Z,18.00
2022-10-28T08:31:57.940Z,18.00
2022-10-28T08:34:29.843Z,18.00
2022-10-28T08:36:57.880Z,17.90
2022-10-28T08:39:25.034Z,17.90
2022-10-28T08:42:08.082Z,18.00
2022-10-28T08:44:57.393Z,18.00
2022-10-28T08:47:54.119Z,18.00
2022-10-28T08:50:25.086Z,18.10
2022-10-28T08:52:57.201Z,18.10
2022-10-28T08:55:31.236Z,18.20
2022-10-28T08:58:07.456Z,18.30
2022-10-28T09:00:35.059Z,18.40
2022-10-28T09:03:22.604Z,18.50
2022-10-28T09:06:10.321Z,18.70
2022-10-28T09:08:41.564Z,18.90
2022-10-28T09:11:23.478Z,19.20
2022-10-28T09:14:12.111Z,19.40
2022-10-28T09:16:55.011Z,19.60
2022-10-28T09:19:31.052Z,19.70
2022-10-28T09:22:14.446Z,19.80
2022-10-28T09:24:54.221Z,19.80
2022-10-28T09:27:43.046Z,19.70
2022-10-28T09:30:35.509Z,19.70
2022-10-28T09:33:37.354Z,19.70
2022-10-28T09:36:16.366Z,19.70
2022-10-28T09:38:45.002Z,19.80
2022-10-28T09:41:24.410Z,19.80
2022-10-28T09:43:59.058Z,20.00
2022-10-28T09:46:31.939Z,20.20
2022-10-28T09:49:16.707Z,20.40
2022-10-28T09:51:55.612Z,20.50
2022-10-28T09:54:34.748Z,20.60
2022-10-28T09:57:03.240Z,20.70
2022-10-28T09:59:30.477Z,20.80
2022-10-28T10:01:57.927Z,21.00
2022-10-28T10:04:27.999Z,21.10
2022-10-28T10:07:05.644Z,21.30
2022-10-28T10:09:35.142Z,21.40
2022-10-28T10:12:13.241Z,21.60
2022-10-28T10:14:45.385Z,21.70
2022-10-28T10:17:25.831Z,21.90
2022-10-28T10:20:22.752Z,22.10
2022-10-28T10:22:49.974Z,22.30
2022-10-28T10:25:25.469Z,22.50
2022-10-28T10:27:52.694Z,22.70
2022-10-28T10:30:24.721Z,22.90
2022-10-28T10:32:53.370Z,23.00
2022-10-28T10:35:25.316Z,23.10
2022-10-28T10:37:53.652Z,23.10
2022-10-28T10:40:37.183Z,23.20
2022-10-28T10:43:31.628Z,23.20
2022-10-28T10:46:13.454Z,23.20
2022-10-28T10:48:40.727Z,23.10
2022-10-28T10:51:24.214Z,23.10
2022-10-28T10:53:54.893Z,23.00
2022-10-28T10:56:29.637Z,23.00
2022-10-28T10:59:02.341Z,23.00
2022-10-28T11:01:39.270Z,22.90
2022-10-28T11:04:08.463Z,22.90
2022-10-28T11:06:41.814Z,23.00
2022-10-28T11:09:27.348Z,22.90
2022-10-28T11:11:57.714Z,23.00
2022-10-28T11:14:27.857Z,23.10
2022-10-28T11:16:57.487Z,23.20
2022-10-28T11:19:34.899Z,23.20
2022-10-28T11:22:39.082Z,23.30
2022-10-28T11:25:09.305Z,23.50
2022-10-28T11:28:14.482Z,23.60
2022-10-28T11:31:04.652Z,23.60
2022-10-28T11:34:23.728Z,23.70
2022-10-28T11:37:41.697Z,23.70
2022-10-28T11:40:10.697Z,23.80
2022-10-28T11:42:43.819Z,24.00
2022-10-28T11:45:36.958Z,24.10
2022-10-28T11:48:11.092Z,24.20
2022-10-28T11:50:48.315Z,24.20
2022-10-28T11:53:30.409Z,24.20
2022-10-28T11:56:26.277Z,24.20
2022-10-28T11:59:16.874Z,24.40
2022-10-28T12:02:10.310Z,24.30
2022-10-28T12:05:10.357Z,24.40
2022-10-28T12:07:46.415Z,24.30
2022-10-28T12:10:26.986Z,24.30
2022-10-28T12:13:23.261Z,24.30
2022-10-28T12:15:55.615Z,24.30
2022-10-28T12:18:35.747Z,24.30
2022-10-28T12:21:19.941Z,24.30
2022-10-28T12:23:48.477Z,24.40
2022-10-28T12:26:18.200Z,24.60
2022-10-28T12:28:51.817Z,24.70
2022-10-28T12:31:34.466Z,24.70
2022-10-28T12:34:09.443Z,24.80
2022-10-28T12:36:41.811Z,24.80
2022-10-28T12:39:17.281Z,24.90
2022-10-28T12:42:02.757Z,25.00
2022-10-28T12:44:33.080Z,25.00
2022-10-28T12:47:16.582Z,25.10
2022-10-28T12:50:07.939Z,25.00
2022-10-28T12:53:15.328Z,25.00
2022-10-28T12:56:00.912Z,25.00
2022-10-28T12:58:37.865Z,25.00
2022-10-28T13:01:10.178Z,25.00
2022-10-28T13:03:37.520Z,25.00
2022-10-28T13:06:19.881Z,25.10
2022-10-28T13:09:06.253Z,25.20
2022-10-28T13:12:22.925Z,25.30
2022-10-28T13:15:27.546Z,25.40
2022-10-28T13:17:54.651Z,25.50
2022-10-28T13:20:47.795Z,25.50
2022-10-28T13:23:20.643Z,25.50
2022-10-28T13:26:11.369Z,25.50
2022-10-28T13:28:47.523Z,25.50
2022-10-28T13:31:18.646Z,25.50
2022-10-28T13:33:59.847Z,25.50
2022-10-28T13:36:28.481Z,25.50
2022-10-28T13:39:01.560Z,25.50
2022-10-28T13:41:40.947Z,25.50
2022-10-28T13:44:10.313Z,25.50
2022-10-28T13:46:58.953Z,25.50
2022-10-28T13:49:59.834Z,25.60
2022-10-28T13:52:26.744Z,25.60
2022-10-28T13:54:56.666Z,25.60
2022-10-28T13:57:36.664Z,25.60
2022-10-28T14:00:06.865Z,25.50
2022-10-28T14:02:56.692Z,25.50
2022-10-28T14:05:44.269Z,25.50
2022-10-28T14:08:20.521Z,25.50
2022-10-28T14:11:12.897Z,25.60
2022-10-28T14:14:00.650Z,25.60
2022-10-28T14:16:38.244Z,25.50
2022-10-28T14:19:11.089Z,25.50
2022-10-28T14:21:48.333Z,25.40
2022-10-28T14:24:39.233Z,25.40
2022-10-28T14:27:06.529Z,25.30
2022-10-28T14:29:55.657Z,25.30
2022-10-28T14:32:31.892Z,25.20
2022-10-28T14:35:39.212Z,25.10
2022-10-28T14:38:15.588Z,25.00
2022-10-28T14:40:49.807Z,25.00
2022-10-28T14:43:36.930Z,25.00
2022-10-28T14:46:22.361Z,25.00
2022-10-28T14:48:57.488Z,25.10
2022-10-28T14:51:27.401Z,25.00
2022-10-28T14:53:59.631Z,25.00
2022-10-28T14:56:29.449Z,25.00
2022-10-28T14:59:24.916Z,25.00
2022-10-28T15:02:00.883Z,24.90
2022-10-28T15:04:29.358Z,24.70
2022-10-28T15:07:15.281Z,24.70
2022-10-28T15:09:44.095Z,24.60
2022-10-28T15:12:17.219Z,24.50
2022-10-28T15:14:52.909Z,24.50
2022-10-28T15:17:21.600Z,24.40
2022-10-28T15:20:00.210Z,24.30
2022-10-28T15:22:33.355Z,24.30
2022-10-28T15:25:06.624Z,24.20
2022-10-28T15:27:38.830Z,24.10
2022-10-28T15:30:24.447Z,24.00
2022-10-28T15:32:55.217Z,23.90
2022-10-28T15:43:06.328Z,23.50
2022-10-28T15:45:42.154Z,23.30
2022-10-28T15:48:13.570Z,23.20
2022-10-28T15:50:41.161Z,23.10
2022-10-28T15:57:07.213Z,22.90
2022-10-28T15:59:36.718Z,22.80
2022-10-28T16:02:04.240Z,22.60
2022-10-28T16:04:44.009Z,22.50
2022-10-28T16:07:11.881Z,22.40
2022-10-28T16:09:47.021Z,22.20
2022-10-28T16:12:17.413Z,22.10
2022-10-28T16:14:48.795Z,22.00
2022-10-28T16:17:35.674Z,22.00
2022-10-28T16:20:17.050Z,21.90
2022-10-28T16:22:45.926Z,21.80
2022-10-28T16:25:15.257Z,21.60
2022-10-28T16:27:42.778Z,21.60
2022-10-28T16:30:10.617Z,21.50
2022-10-28T16:32:44.461Z,21.40
2022-10-28T16:35:24.466Z,21.40
2022-10-28T16:37:55.464Z,21.30
2022-10-28T16:40:52.787Z,21.20
2022-10-28T16:43:20.025Z,21.20
2022-10-28T16:45:48.729Z,21.10
2022-10-28T16:48:18.099Z,21.10
2022-10-28T16:50:49.776Z,21.10
2022-10-28T16:53:17.008Z,21.10
2022-10-28T16:55:44.220Z,21.10
2022-10-28T16:58:11.633Z,21.10
2022-10-28T17:00:39.156Z,21.00
2022-10-28T17:03:06.997Z,20.90
2022-10-28T17:05:34.672Z,20.90
2022-10-28T17:08:04.560Z,20.80
2022-10-28T17:10:35.998Z,20.80
2022-10-28T17:13:03.250Z,20.80
2022-10-28T17:15:30.185Z,20.70
2022-10-28T17:17:58.023Z,20.60
2022-10-28T17:20:25.041Z,20.60
2022-10-28T17:22:52.372Z,20.50
2022-10-28T17:25:19.632Z,20.50
2022-10-28T17:27:48.586Z,20.40
2022-10-28T17:30:19.257Z,20.40
2022-10-28T17:32:50.401Z,20.30
2022-10-28T17:35:19.817Z,20.30
2022-10-28T17:37:46.929Z,20.30
2022-10-28T17:40:14.987Z,20.30
2022-10-28T17:42:41.958Z,20.20
2022-10-28T17:45:10.482Z,20.20
2022-10-28T17:47:37.594Z,20.20
2022-10-28T17:50:04.942Z,20.20
2022-10-28T17:52:35.676Z,20.20
2022-10-28T17:55:06.058Z,20.20
2022-10-28T17:57:32.981Z,20.10
2022-10-28T18:00:00.058Z,20.10
2022-10-28T18:02:27.363Z,20.10
2022-10-28T18:04:54.568Z,20.10
2022-10-28T18:07:21.553Z,20.10
2022-10-28T18:09:48.565Z,20.10
2022-10-28T18:12:15.563Z,20.10
2022-10-28T18:14:42.543Z,20.10
2022-10-28T18:17:13.276Z,20.10
2022-10-28T18:19:40.168Z,20.00
2022-10-28T18:22:07.113Z,20.00
2022-10-28T18:24:34.187Z,20.00
2022-10-28T18:27:01.225Z,20.00
2022-10-28T18:29:29.306Z,20.00
2022-10-28T18:31:56.786Z,19.90
2022-10-28T18:34:23.912Z,19.90
2022-10-28T18:36:51.738Z,19.80
2022-10-28T18:39:18.722Z,19.80
2022-10-28T18:41:45.897Z,19.80
2022-10-28T18:44:14.412Z,19.70
2022-10-28T18:46:42.261Z,19.70
2022-10-28T18:49:10.306Z,19.70
2022-10-28T18:51:37.551Z,19.70
2022-10-28T18:54:05.752Z,19.70
2022-10-28T18:56:34.347Z,19.70
2022-10-28T18:59:03.502Z,19.70
2022-10-28T19:01:31.928Z,19.70
2022-10-28T19:04:04.355Z,19.60
2022-10-28T19:06:33.243Z,19.60
2022-10-28T19:09:03.207Z,19.60
2022-10-28T19:11:31.915Z,19.60
2022-10-28T19:14:00.545Z,19.70
2022-10-28T19:16:28.599Z,19.60
2022-10-28T19:18:57.323Z,19.70
2022-10-28T19:21:25.051Z,19.70
2022-10-28T19:23:53.796Z,19.70
2022-10-28T19:26:21.468Z,19.70
2022-10-28T19:28:50.563Z,19.60
2022-10-28T19:31:23.724Z,19.70
2022-10-28T19:33:52.564Z,19.60
2022-10-28T19:36:23.446Z,19.70
2022-10-28T19:38:53.901Z,19.70
2022-10-28T19:41:26.570Z,19.70
2022-10-28T19:44:11.535Z,19.80
2022-10-28T19:46:38.705Z,19.80
2022-10-28T19:49:07.050Z,19.80
2022-10-28T19:51:41.315Z,19.80
2022-10-28T19:54:13.552Z,19.80
2022-10-28T19:56:42.937Z,19.70
2022-10-28T19:59:16.020Z,19.70
2022-10-28T20:01:43.452Z,19.70
2022-10-28T20:04:10.829Z,19.70
2022-10-28T20:06:40.264Z,19.70
2022-10-28T20:09:08.032Z,19.70
2022-10-28T20:11:37.764Z,19.70
2022-10-28T20:14:11.635Z,19.70
2022-10-28T20:16:42.977Z,19.60
2022-10-28T20:19:10.447Z,19.50
2022-10-28T20:21:38.255Z,19.50
2022-10-28T20:24:06.965Z,19.40
2022-10-28T20:26:35.737Z,19.40
2022-10-28T20:29:03.196Z,19.30
2022-10-28T20:31:31.889Z,19.30
2022-10-28T20:34:01.634Z,19.20
2022-10-28T20:36:37.523Z,19.20
2022-10-28T20:39:11.792Z,19.10
2022-10-28T20:41:40.442Z,19.10
2022-10-28T20:44:08.056Z,19.00
2022-10-28T20:46:35.663Z,19.00
2022-10-28T20:49:06.253Z,18.90
2022-10-28T20:51:33.694Z,18.90
2022-10-28T20:54:02.037Z,18.90
2022-10-28T20:56:34.807Z,18.90
2022-10-28T20:59:02.020Z,18.80
2022-10-28T21:01:36.065Z,18.80
2022-10-28T21:04:05.908Z,18.80
2022-10-28T21:06:33.693Z,18.70
2022-10-28T21:09:00.771Z,18.70
2022-10-28T21:11:28.999Z,18.70
2022-10-28T21:13:58.596Z,18.60
2022-10-28T21:16:27.132Z,18.60
2022-10-28T21:18:54.479Z,18.60
2022-10-28T21:21:23.514Z,18.60
2022-10-28T21:23:50.719Z,18.60
2022-10-28T21:26:17.764Z,18.50
2022-10-28T21:28:48.678Z,18.50
2022-10-28T21:31:17.295Z,18.40
2022-10-28T21:33:44.987Z,18.40
2022-10-28T21:36:17.908Z,18.40
2022-10-28T21:38:45.110Z,18.30
2022-10-28T21:41:15.014Z,18.30
2022-10-28T21:43:44.373Z,18.30
2022-10-28T21:46:12.012Z,18.30
2022-10-28T21:48:39.567Z,18.30
2022-10-28T21:51:13.515Z,18.20
2022-10-28T21:53:42.586Z,18.20
2022-10-28T21:56:16.600Z,18.20
2022-10-28T21:58:45.822Z,18.20
2022-10-28T22:01:21.861Z,18.10
2022-10-28T22:03:50.419Z,18.10
2022-10-28T22:06:17.726Z,18.10
2022-10-28T22:08:44.907Z,18.10
2022-10-28T22:11:17.827Z,18.00
2022-10-28T22:13:45.203Z,18.00
2022-10-28T22:16:14.431Z,18.00
2022-10-28T22:18:41.891Z,18.00
2022-10-28T22:21:15.473Z,18.00
2022-10-28T22:23:42.721Z,18.00
2022-10-28T22:26:13.486Z,18.00
2022-10-28T22:28:41.119Z,18.00
2022-10-28T22:31:10.891Z,18.00
2022-10-28T22:33:38.617Z,18.00
2022-10-28T22:36:08.407Z,18.00
2022-10-28T22:38:35.438Z,18.10
2022-10-28T22:41:15.894Z,18.10
2022-10-28T22:43:45.116Z,18.10
2022-10-28T22:46:13.389Z,18.00
2022-10-28T22:48:40.434Z,18.10
2022-10-28T22:51:09.412Z,18.10
2022-10-28T22:53:39.998Z,18.10
2022-10-28T22:56:08.468Z,18.10
2022-10-28T22:58:35.819Z,18.20
2022-10-28T23:01:11.917Z,18.20
2022-10-28T23:03:40.961Z,18.20
2022-10-28T23:06:09.239Z,18.20
2022-10-28T23:08:38.388Z,18.30
2022-10-28T23:11:06.192Z,18.30
2022-10-28T23:13:34.010Z,18.30
2022-10-28T23:16:05.979Z,18.30
2022-10-28T23:18:33.140Z,18.30
2022-10-28T23:21:27.557Z,18.30
2022-10-28T23:23:56.818Z,18.40
2022-10-28T23:26:24.862Z,18.40
2022-10-28T23:28:53.670Z,18.40
2022-10-28T23:31:21.987Z,18.40
2022-10-28T23:33:49.599Z,18.30
2022-10-28T23:36:17.145Z,18.30
2022-10-28T23:38:44.191Z,18.30
2022-10-28T23:41:15.741Z,18.30
2022-10-28T23:43:42.926Z,18.20
2022-10-28T23:46:10.251Z,18.20
2022-10-28T23:48:37.176Z,18.10
2022-10-28T23:51:04.349Z,18.10
2022-10-28T23:53:31.613Z,18.00
2022-10-28T23:55:58.800Z,18.00
2022-10-28T23:58:25.892Z,17.90
